createdAt,value
2024-05-09T00:01:52.447Z,3.35
2024-05-09T00:04:22.322Z,2.88
2024-05-09T00:06:54.640Z,3.83
2024-05-09T00:09:24.272Z,2.67
2024-05-09T00:11:53.988Z,2.60
2024-05-09T00:14:23.765Z,3.00
2024-05-09T00:16:53.471Z,3.50
2024-05-09T00:19:23.651Z,2.90
2024-05-09T00:21:55.978Z,3.05
2024-05-09T00:24:25.583Z,3.10
2024-05-09T00:26:55.168Z,2.97
2024-05-09T00:29:25.060Z,3.05
2024-05-09T00:31:54.829Z,3.10
2024-05-09T00:34:26.632Z,3.38
2024-05-09T00:36:59.179Z,3.25
2024-05-09T00:39:28.780Z,3.13
2024-05-09T00:41:59.644Z,2.70
2024-05-09T00:44:29.321Z,3.00
2024-05-09T00:46:59.076Z,3.15
2024-05-09T00:49:29.673Z,2.83
2024-05-09T00:52:02.372Z,2.83
2024-05-09T00:57:02.133Z,2.90
2024-05-09T00:59:32.858Z,3.28
2024-05-09T01:02:03.289Z,3.10
2024-05-09T01:04:33.053Z,3.22
2024-05-09T01:07:05.334Z,3.88
2024-05-09T01:09:35.000Z,3.33
2024-05-09T01:12:04.656Z,3.00
2024-05-09T01:14:34.383Z,3.00
2024-05-09T01:17:04.070Z,3.42
2024-05-09T01:19:34.361Z,3.03
2024-05-09T01:22:08.055Z,2.95
2024-05-09T01:24:40.416Z,3.20
2024-05-09T01:27:10.000Z,2.85
2024-05-09T01:29:39.599Z,3.17
2024-05-09T01:32:09.532Z,2.90
2024-05-09T01:34:39.204Z,2.83
2024-05-09T01:37:08.840Z,3.33
2024-05-09T01:39:41.149Z,3.22
2024-05-09T01:42:10.755Z,3.53
2024-05-09T01:44:40.316Z,3.65
2024-05-09T01:47:10.184Z,3.42
2024-05-09T01:49:40.142Z,3.72
2024-05-09T01:52:09.861Z,3.25
2024-05-09T01:54:42.122Z,3.95
2024-05-09T01:57:11.761Z,3.30
2024-05-09T01:59:41.416Z,3.15
2024-05-09T02:02:11.294Z,4.00
2024-05-09T02:04:41.269Z,3.90
2024-05-09T02:07:10.867Z,3.88
2024-05-09T02:09:43.256Z,3.53
2024-05-09T02:12:13.015Z,4.28
2024-05-09T02:14:42.911Z,3.72
2024-05-09T02:17:12.556Z,3.45
2024-05-09T02:19:42.234Z,3.70
2024-05-09T02:22:11.840Z,3.92
2024-05-09T02:24:44.137Z,3.95
2024-05-09T02:27:13.681Z,4.20
2024-05-09T02:29:43.300Z,3.50
2024-05-09T02:32:13.019Z,4.05
2024-05-09T02:34:42.684Z,3.58
2024-05-09T02:37:12.319Z,4.22
2024-05-09T02:39:41.968Z,3.70
2024-05-09T02:42:11.560Z,3.42
2024-05-09T02:44:38.589Z,3.92
2024-05-09T02:47:08.454Z,3.83
2024-05-09T02:49:37.536Z,3.60
2024-05-09T02:52:07.828Z,4.20
2024-05-09T02:54:34.797Z,3.60
2024-05-09T02:57:07.266Z,3.95
2024-05-09T02:59:34.344Z,3.53
2024-05-09T03:02:04.023Z,3.63
2024-05-09T03:04:31.324Z,3.22
2024-05-09T03:07:01.179Z,2.95
2024-05-09T03:09:28.145Z,2.85
2024-05-09T03:11:57.840Z,3.35
2024-05-09T03:14:27.636Z,3.35
2024-05-09T03:16:57.463Z,3.20
2024-05-09T03:19:24.544Z,3.20
2024-05-09T03:21:54.147Z,2.90
2024-05-09T03:24:21.168Z,3.20
2024-05-09T03:26:51.656Z,3.03
2024-05-09T03:29:19.054Z,3.33
2024-05-09T03:31:51.445Z,3.08
2024-05-09T03:34:18.560Z,3.45
2024-05-09T03:36:48.196Z,3.20
2024-05-09T03:39:17.835Z,2.60
2024-05-09T03:41:47.454Z,2.90
2024-05-09T03:44:14.549Z,2.95
2024-05-09T03:46:44.376Z,3.00
2024-05-09T03:49:14.450Z,3.15
2024-05-09T03:51:44.209Z,3.17
2024-05-09T03:54:11.251Z,3.10
2024-05-09T03:56:40.877Z,3.80
2024-05-09T03:59:08.104Z,3.10
2024-05-09T04:01:37.833Z,3.53
2024-05-09T04:04:05.151Z,2.90
2024-05-09T04:06:37.478Z,3.45
2024-05-09T04:09:05.349Z,3.67
2024-05-09T04:11:35.333Z,4.18
2024-05-09T04:14:02.426Z,3.83
2024-05-09T04:16:32.014Z,4.20
2024-05-09T04:18:59.091Z,4.05
2024-05-09T04:21:28.846Z,3.75
2024-05-09T04:23:58.516Z,3.88
2024-05-09T04:26:28.186Z,3.70
2024-05-09T04:28:55.560Z,3.72
2024-05-09T04:31:25.212Z,3.92
2024-05-09T04:33:55.004Z,3.88
2024-05-09T04:36:22.056Z,4.13
2024-05-09T04:38:51.676Z,4.30
2024-05-09T04:41:21.320Z,3.50
2024-05-09T04:43:51.738Z,4.10
2024-05-09T04:46:18.739Z,4.25
2024-05-09T04:48:48.990Z,4.15
2024-05-09T04:51:16.275Z,4.18
2024-05-09T04:53:45.957Z,4.22
2024-05-09T04:56:13.092Z,4.25
2024-05-09T04:58:45.369Z,4.78
2024-05-09T05:01:12.400Z,4.45
2024-05-09T05:03:42.222Z,4.35
2024-05-09T05:06:09.506Z,5.00
2024-05-09T05:08:40.442Z,4.80
2024-05-09T05:11:07.667Z,4.35
2024-05-09T05:13:40.836Z,4.70
2024-05-09T05:16:11.193Z,4.32
2024-05-09T05:18:40.755Z,5.18
2024-05-09T05:21:08.033Z,5.15
2024-05-09T05:23:37.680Z,4.65
2024-05-09T05:26:05.560Z,5.15
2024-05-09T05:28:35.252Z,4.38
2024-05-09T05:31:02.234Z,4.18
2024-05-09T05:33:34.519Z,5.07
2024-05-09T05:36:01.637Z,4.00
2024-05-09T05:38:31.304Z,5.68
2024-05-09T05:40:58.441Z,4.82
2024-05-09T05:43:29.599Z,4.22
2024-05-09T05:45:56.655Z,3.60
2024-05-09T05:48:26.398Z,4.72
2024-05-09T05:50:56.115Z,4.88
2024-05-09T05:53:25.913Z,4.50
2024-05-09T05:55:53.036Z,4.40
2024-05-09T05:58:22.952Z,4.40
2024-05-09T06:00:53.106Z,4.82
2024-05-09T06:03:22.893Z,4.68
2024-05-09T06:05:50.013Z,4.80
2024-05-09T06:08:22.394Z,4.68
2024-05-09T06:10:49.587Z,5.40
2024-05-09T06:13:20.512Z,4.85
2024-05-09T06:15:47.442Z,4.65
2024-05-09T06:18:17.684Z,4.43
2024-05-09T06:20:45.065Z,5.60
2024-05-09T06:23:14.866Z,4.32
2024-05-09T06:25:44.781Z,5.50
2024-05-09T06:28:14.451Z,4.50
2024-05-09T06:30:42.761Z,5.03
2024-05-09T06:33:15.778Z,5.30
2024-05-09T06:35:44.348Z,4.20
2024-05-09T06:38:14.614Z,4.63
2024-05-09T06:40:44.895Z,4.80
2024-05-09T06:43:17.347Z,4.45
2024-05-09T06:45:47.144Z,4.68
2024-05-09T06:48:17.237Z,4.63
2024-05-09T06:50:44.398Z,5.57
2024-05-09T06:53:17.322Z,5.50
2024-05-09T06:55:47.146Z,4.43
2024-05-09T06:58:16.991Z,4.47
2024-05-09T07:00:44.048Z,4.57
2024-05-09T07:03:17.137Z,4.80
2024-05-09T07:05:47.089Z,4.53
2024-05-09T07:08:18.022Z,4.80
2024-05-09T07:10:47.920Z,4.57
2024-05-09T07:13:17.887Z,4.47
2024-05-09T07:15:45.074Z,5.63
2024-05-09T07:18:18.332Z,5.18
2024-05-09T07:20:47.044Z,4.63
2024-05-09T07:23:17.145Z,4.18
2024-05-09T07:25:47.761Z,4.00
2024-05-09T07:28:18.675Z,4.28
2024-05-09T07:30:46.343Z,4.03
2024-05-09T07:33:20.023Z,4.10
2024-05-09T07:35:48.710Z,5.10
2024-05-09T07:38:18.439Z,5.28
2024-05-09T07:40:48.264Z,5.18
2024-05-09T07:43:18.271Z,4.80
2024-05-09T07:45:52.334Z,5.05
2024-05-09T07:52:38.615Z,5.05
2024-05-09T07:53:49.240Z,4.57
2024-05-09T07:56:23.438Z,4.43
2024-05-09T07:58:55.538Z,4.60
2024-05-09T08:01:25.812Z,4.68
2024-05-09T08:03:56.085Z,4.13
2024-05-09T08:06:23.969Z,4.65
2024-05-09T08:08:53.653Z,4.45
2024-05-09T08:11:23.844Z,3.95
2024-05-09T08:13:53.527Z,4.93
2024-05-09T08:16:20.688Z,3.95
2024-05-09T08:18:51.581Z,4.28
2024-05-09T08:21:19.392Z,3.47
2024-05-09T08:23:49.132Z,3.80
2024-05-09T08:26:16.180Z,3.80
2024-05-09T08:28:48.410Z,3.60
2024-05-09T08:31:15.776Z,3.30
2024-05-09T08:33:50.528Z,3.28
2024-05-09T08:36:17.832Z,2.85
2024-05-09T08:38:47.459Z,3.33
2024-05-09T08:41:15.399Z,3.38
2024-05-09T08:43:49.800Z,3.28
2024-05-09T08:46:18.680Z,3.00
2024-05-09T08:48:50.753Z,2.90
2024-05-09T08:51:18.003Z,3.05
2024-05-09T08:53:47.710Z,2.97
2024-05-09T08:56:16.540Z,2.80
2024-05-09T08:58:52.009Z,3.15
2024-05-09T09:01:19.739Z,3.70
2024-05-09T09:03:51.336Z,3.80
2024-05-09T09:06:21.830Z,2.85
2024-05-09T09:08:51.718Z,3.15
2024-05-09T09:11:18.920Z,3.40
2024-05-09T09:13:51.991Z,2.90
2024-05-09T09:16:19.154Z,2.95
2024-05-09T09:18:49.913Z,3.20
2024-05-09T09:21:17.946Z,3.50
2024-05-09T09:23:47.553Z,3.60
2024-05-09T09:26:16.181Z,3.40
2024-05-09T09:28:46.323Z,3.30
2024-05-09T09:31:17.809Z,3.13
2024-05-09T09:33:47.879Z,4.00
2024-05-09T09:36:15.173Z,3.67
2024-05-09T09:38:45.396Z,4.30
2024-05-09T09:41:13.312Z,3.55
2024-05-09T09:43:43.859Z,2.80
2024-05-09T09:46:12.999Z,4.20
2024-05-09T09:48:47.110Z,4.20
2024-05-09T09:51:15.130Z,4.60
2024-05-09T09:53:46.740Z,3.75
2024-05-09T09:56:17.343Z,4.70
2024-05-09T09:58:48.185Z,4.70
2024-05-09T10:01:15.356Z,5.00
2024-05-09T10:03:48.243Z,4.78
2024-05-09T10:06:16.239Z,4.13
2024-05-09T10:08:47.828Z,4.75
2024-05-09T10:11:20.161Z,3.47
2024-05-09T10:16:21.097Z,3.42
2024-05-09T10:18:53.700Z,3.20
2024-05-09T10:21:21.601Z,3.58
2024-05-09T10:24:01.831Z,3.63
2024-05-09T10:26:33.183Z,3.70
2024-05-09T10:29:03.428Z,4.15
2024-05-09T10:31:30.891Z,4.97
2024-05-09T10:34:03.604Z,4.90
2024-05-09T10:36:30.924Z,4.28
2024-05-09T10:39:02.543Z,4.40
2024-05-09T10:41:29.569Z,3.47
2024-05-09T10:43:59.204Z,3.90
2024-05-09T10:46:26.337Z,4.00
2024-05-09T10:48:56.154Z,3.58
2024-05-09T10:51:25.931Z,3.55
2024-05-09T10:53:56.995Z,4.30
2024-05-09T10:56:23.983Z,3.35
2024-05-09T10:58:54.723Z,5.95
2024-05-09T11:01:21.837Z,3.80
2024-05-09T11:03:51.970Z,3.47
2024-05-09T11:06:19.069Z,3.33
2024-05-09T11:08:51.566Z,3.97
2024-05-09T11:11:18.881Z,2.90
2024-05-09T11:13:48.534Z,2.53
2024-05-09T11:16:20.872Z,2.50
2024-05-09T11:18:58.974Z,3.42
2024-05-09T11:21:26.909Z,3.13
2024-05-09T11:23:59.968Z,3.25
2024-05-09T11:26:29.381Z,2.17
2024-05-09T11:28:59.099Z,2.20
2024-05-09T11:31:26.500Z,2.58
2024-05-09T11:33:57.359Z,2.60
2024-05-09T11:36:24.456Z,2.63
2024-05-09T11:38:54.113Z,2.50
2024-05-09T11:41:24.412Z,1.92
2024-05-09T11:43:54.044Z,2.25
2024-05-09T11:46:21.158Z,2.10
2024-05-09T11:48:50.911Z,2.10
2024-05-09T11:51:18.046Z,2.13
2024-05-09T11:53:47.672Z,1.80
2024-05-09T11:56:15.517Z,1.80
2024-05-09T11:58:47.820Z,2.45
2024-05-09T12:03:44.501Z,1.75
2024-05-09T12:06:11.813Z,1.60
2024-05-09T12:08:41.637Z,1.60
2024-05-09T12:11:08.761Z,1.48
2024-05-09T12:13:38.537Z,1.63
2024-05-09T12:16:08.808Z,1.60
2024-05-09T12:18:38.522Z,1.50
2024-05-09T12:21:06.123Z,1.55
2024-05-09T12:23:35.712Z,1.80
2024-05-09T12:26:03.099Z,1.48
2024-05-09T12:28:32.837Z,2.00
2024-05-09T12:30:59.872Z,1.83
2024-05-09T12:33:32.383Z,2.20
2024-05-09T12:35:59.582Z,1.90
2024-05-09T12:38:29.389Z,2.08
2024-05-09T12:40:56.521Z,1.83
2024-05-09T12:43:26.582Z,1.77
2024-05-09T12:45:53.760Z,1.70
2024-05-09T12:48:23.645Z,1.83
2024-05-09T12:50:55.123Z,2.08
2024-05-09T12:53:24.858Z,1.80
2024-05-09T12:55:56.929Z,1.50
2024-05-09T12:58:29.999Z,2.00
2024-05-09T13:00:57.106Z,2.00
2024-05-09T13:03:26.889Z,1.70
2024-05-09T13:05:56.659Z,1.70
2024-05-09T13:08:26.418Z,2.05
2024-05-09T13:10:53.866Z,2.03
2024-05-09T13:13:23.594Z,1.52
2024-05-09T13:15:50.675Z,1.60
2024-05-09T13:18:20.431Z,2.20
2024-05-09T13:20:47.491Z,2.10
2024-05-09T13:23:19.744Z,2.38
2024-05-09T13:25:46.866Z,1.92
2024-05-09T13:28:16.829Z,2.17
2024-05-09T13:30:44.051Z,2.28
2024-05-09T13:33:14.743Z,2.72
2024-05-09T13:35:46.932Z,2.22
2024-05-09T13:38:22.460Z,1.90
2024-05-09T13:40:50.531Z,1.95
2024-05-09T13:43:22.016Z,1.88
2024-05-09T13:45:49.630Z,2.13
2024-05-09T13:48:19.879Z,2.40
2024-05-09T13:50:47.262Z,1.83
2024-05-09T13:53:17.000Z,2.17
2024-05-09T13:55:46.754Z,2.60
2024-05-09T13:58:16.689Z,2.00
2024-05-09T14:00:48.202Z,2.67
2024-05-09T14:03:21.074Z,2.40
2024-05-09T14:05:50.095Z,2.47
2024-05-09T14:08:22.464Z,2.17
2024-05-09T14:13:23.591Z,1.75
2024-05-09T14:15:50.876Z,2.25
2024-05-09T14:18:20.771Z,1.85
2024-05-09T14:20:47.875Z,2.00
2024-05-09T14:23:17.782Z,2.28
2024-05-09T14:25:46.571Z,2.10
2024-05-09T14:28:20.682Z,2.00
2024-05-09T14:30:47.785Z,1.70
2024-05-09T14:33:23.687Z,2.00
2024-05-09T14:35:50.807Z,2.25
2024-05-09T14:38:20.489Z,2.00
2024-05-09T14:40:48.055Z,1.90
2024-05-09T14:43:21.280Z,1.83
2024-05-09T14:45:48.414Z,1.60
2024-05-09T14:48:19.992Z,1.80
2024-05-09T14:53:16.665Z,1.80
2024-05-09T14:55:44.123Z,2.10
2024-05-09T14:58:14.372Z,1.80
2024-05-09T15:00:50.096Z,2.17
2024-05-09T15:03:22.303Z,2.08
2024-05-09T15:05:50.502Z,2.03
2024-05-09T15:08:21.136Z,2.10
2024-05-09T15:10:50.270Z,1.88
2024-05-09T15:13:20.803Z,2.10
2024-05-09T15:15:50.885Z,2.30
2024-05-09T15:18:20.814Z,1.98
2024-05-09T15:20:48.455Z,2.00
2024-05-09T15:23:18.261Z,2.38
2024-05-09T15:25:45.364Z,4.93
2024-05-09T15:28:15.211Z,2.25
2024-05-09T15:30:46.127Z,24.88
2024-05-09T15:35:47.097Z,8.25
2024-05-09T15:38:18.370Z,2.50
2024-05-09T15:40:45.846Z,3.17
2024-05-09T15:43:15.779Z,4.60
2024-05-09T15:45:42.908Z,2.97
2024-05-09T15:48:13.343Z,2.30
2024-05-09T15:50:43.477Z,3.17
2024-05-09T15:53:14.030Z,2.40
2024-05-09T15:55:41.595Z,1.90
2024-05-09T15:58:11.602Z,2.50
2024-05-09T16:00:42.109Z,2.05
2024-05-09T16:03:14.732Z,1.92
2024-05-09T16:08:17.320Z,2.55
2024-05-09T16:10:46.122Z,9.52
2024-05-09T16:13:17.871Z,2.92
2024-05-09T16:15:45.366Z,2.17
2024-05-09T16:18:15.436Z,2.78
2024-05-09T16:20:48.444Z,2.28
2024-05-09T16:23:19.924Z,1.90
2024-05-09T16:25:48.239Z,2.30
2024-05-09T16:28:18.748Z,1.95
2024-05-09T16:30:45.978Z,1.75
2024-05-09T16:33:19.068Z,2.33
2024-05-09T16:35:49.214Z,2.20
2024-05-09T16:38:19.036Z,1.77
2024-05-09T16:40:46.883Z,1.90
2024-05-09T16:43:17.216Z,1.70
2024-05-09T16:45:44.916Z,3.08
2024-05-09T16:48:15.561Z,1.90
2024-05-09T16:50:43.076Z,1.92
2024-05-09T16:53:16.305Z,1.95
2024-05-09T16:55:43.322Z,2.13
2024-05-09T16:58:13.292Z,2.50
2024-05-09T17:00:43.296Z,2.00
2024-05-09T17:03:16.099Z,2.10
2024-05-09T17:05:45.473Z,1.70
2024-05-09T17:08:18.456Z,2.05
2024-05-09T17:10:45.856Z,2.08
2024-05-09T17:13:15.759Z,1.80
2024-05-09T17:15:45.517Z,1.70
2024-05-09T17:18:15.688Z,2.80
2024-05-09T17:20:42.864Z,3.03
2024-05-09T17:23:14.050Z,2.05
2024-05-09T17:25:44.170Z,2.45
2024-05-09T17:28:14.238Z,2.20
2024-05-09T17:30:42.608Z,2.00
2024-05-09T17:33:13.423Z,1.88
2024-05-09T17:35:45.792Z,1.98
2024-05-09T17:40:42.551Z,2.83
2024-05-09T17:43:12.876Z,2.47
2024-05-09T17:45:42.780Z,2.40
2024-05-09T17:48:11.395Z,2.00
2024-05-09T17:50:42.306Z,1.83
2024-05-09T17:53:10.394Z,1.88
2024-05-09T17:55:40.725Z,5.03
2024-05-09T17:58:08.405Z,2.22
2024-05-09T18:00:42.393Z,2.40
2024-05-09T18:03:12.215Z,2.33
2024-05-09T18:05:44.504Z,3.20
2024-05-09T18:08:12.585Z,2.28
2024-05-09T18:10:43.240Z,2.25
2024-05-09T18:13:11.597Z,2.20
2024-05-09T18:15:45.212Z,2.15
2024-05-09T18:18:13.275Z,7.00
2024-05-09T18:20:45.564Z,2.50
2024-05-09T18:23:16.029Z,2.35
2024-05-09T18:25:48.009Z,2.45
2024-05-09T18:28:15.651Z,2.42
2024-05-09T18:30:48.374Z,3.08
2024-05-09T18:35:46.106Z,3.63
2024-05-09T18:38:13.264Z,4.25
2024-05-09T18:40:45.007Z,2.10
2024-05-09T18:43:14.342Z,2.45
2024-05-09T18:45:44.521Z,2.60
2024-05-09T18:48:15.308Z,2.83
2024-05-09T18:50:45.275Z,2.70
2024-05-09T18:53:13.430Z,2.70
2024-05-09T18:55:43.727Z,2.70
2024-05-09T18:58:11.236Z,3.13
2024-05-09T19:00:44.032Z,4.05
2024-05-09T19:03:16.002Z,8.63
2024-05-09T19:05:46.559Z,5.80
2024-05-09T19:08:14.925Z,4.97
2024-05-09T19:10:45.358Z,3.88
2024-05-09T19:13:14.504Z,2.40
2024-05-09T19:15:45.158Z,2.85
2024-05-09T19:18:15.754Z,3.95
2024-05-09T19:20:45.668Z,3.90
2024-05-09T19:23:12.822Z,3.50
2024-05-09T19:25:42.596Z,4.80
2024-05-09T19:28:09.735Z,10.95
2024-05-09T19:30:42.082Z,7.03
2024-05-09T19:33:12.984Z,4.65
2024-05-09T19:35:46.194Z,4.95
2024-05-09T19:38:13.313Z,5.10
2024-05-09T19:40:43.046Z,4.82
2024-05-09T19:43:11.060Z,4.75
2024-05-09T19:45:40.922Z,4.30
2024-05-09T19:48:11.221Z,4.28
2024-05-09T19:50:43.146Z,4.20
2024-05-09T19:53:17.363Z,3.90
2024-05-09T19:55:44.345Z,4.07
2024-05-09T19:58:14.259Z,3.92
2024-05-09T20:00:43.246Z,4.28
2024-05-09T20:03:15.346Z,3.70
2024-05-09T20:05:45.344Z,4.57
2024-05-09T20:08:18.591Z,5.28
2024-05-09T20:10:45.646Z,7.07
2024-05-09T20:13:16.697Z,5.63
2024-05-09T20:15:43.938Z,5.85
2024-05-09T20:18:14.088Z,4.90
2024-05-09T20:20:43.627Z,5.55
2024-05-09T20:23:15.044Z,5.10
2024-05-09T20:25:47.380Z,5.15
2024-05-09T20:28:14.534Z,4.95
2024-05-09T20:30:44.577Z,4.03
2024-05-09T20:33:12.684Z,7.60
2024-05-09T20:35:42.515Z,8.40
2024-05-09T20:38:09.514Z,14.65
2024-05-09T20:40:39.965Z,5.68
2024-05-09T20:43:10.784Z,14.13
2024-05-09T20:45:41.096Z,11.18
2024-05-09T20:48:09.763Z,7.88
2024-05-09T20:50:41.958Z,6.00
2024-05-09T20:53:11.214Z,5.95
2024-05-09T20:55:41.204Z,20.48
2024-05-09T20:58:11.244Z,25.23
2024-05-09T21:00:44.208Z,9.57
2024-05-09T21:03:14.479Z,5.75
2024-05-09T21:05:45.883Z,5.05
2024-05-09T21:08:13.343Z,5.10
2024-05-09T21:10:43.260Z,5.47
2024-05-09T21:13:13.222Z,4.88
2024-05-09T21:15:43.042Z,5.18
2024-05-09T21:18:10.160Z,5.10
2024-05-09T21:20:39.809Z,4.95
2024-05-09T21:23:06.888Z,5.18
2024-05-09T21:25:36.783Z,5.10
2024-05-09T21:28:04.457Z,4.72
2024-05-09T21:30:41.801Z,5.25
2024-05-09T21:33:12.880Z,4.72
2024-05-09T21:35:44.871Z,5.07
2024-05-09T21:38:14.034Z,4.68
2024-05-09T21:40:44.961Z,4.55
2024-05-09T21:43:12.517Z,4.95
2024-05-09T21:45:44.890Z,5.15
2024-05-09T21:48:13.015Z,4.90
2024-05-09T21:50:43.052Z,4.80
2024-05-09T21:53:11.148Z,5.13
2024-05-09T21:55:40.922Z,4.60
2024-05-09T21:58:08.120Z,5.15
2024-05-09T22:00:39.391Z,4.20
2024-05-09T22:06:38.946Z,4.45
2024-05-09T22:09:05.998Z,4.43
2024-05-09T22:11:35.636Z,4.95
2024-05-09T22:14:02.662Z,4.45
2024-05-09T22:16:32.330Z,4.32
2024-05-09T22:18:59.396Z,4.68
2024-05-09T22:21:29.195Z,3.95
2024-05-09T22:23:58.849Z,4.72
2024-05-09T22:26:28.502Z,4.68
2024-05-09T22:28:55.605Z,4.65
2024-05-09T22:31:25.483Z,4.72
2024-05-09T22:33:52.899Z,4.68
2024-05-09T22:36:22.713Z,4.30
2024-05-09T22:38:49.661Z,4.20
2024-05-09T22:41:21.871Z,4.93
2024-05-09T22:43:48.885Z,4.35
2024-05-09T22:46:18.586Z,4.30
2024-05-09T22:48:45.754Z,4.53
2024-05-09T22:51:15.588Z,4.45
2024-05-09T22:53:42.555Z,4.05
2024-05-09T22:56:13.834Z,4.15
2024-05-09T22:58:43.497Z,4.35
2024-05-09T23:01:17.355Z,4.80
2024-05-09T23:03:44.811Z,4.28
2024-05-09T23:06:14.526Z,5.35
2024-05-09T23:08:41.523Z,5.07
2024-05-09T23:11:12.586Z,4.07
2024-05-09T23:13:39.589Z,5.22
2024-05-09T23:16:12.968Z,5.22
2024-05-09T23:18:40.360Z,6.55
2024-05-09T23:21:10.171Z,5.47
2024-05-09T23:23:37.180Z,5.50
2024-05-09T23:26:07.257Z,4.72
2024-05-09T23:28:34.346Z,4.35
2024-05-09T23:31:03.970Z,4.80
2024-05-09T23:33:33.772Z,4.57
2024-05-09T23:36:03.472Z,4.35
2024-05-09T23:38:30.428Z,4.47
2024-05-09T23:41:00.148Z,4.18
2024-05-09T23:43:27.368Z,4.93
2024-05-09T23:45:57.183Z,4.40
2024-05-09T23:48:24.343Z,4.78
2024-05-09T23:50:56.650Z,4.68
2024-05-09T23:53:23.675Z,4.40
2024-05-09T23:55:53.296Z,4.40
2024-05-09T23:58:20.374Z,4.15
